PWSweather.com
Personal Weather Stations
Station Observations
KMAMEDFI2
Medfield, MA 02052

Medfield, MA 02052

Lat: 42.1900822, Lon: -71.3296889

Elevation: 138

Station Type: Rainwise WS MK-III

http://www.medfieldweather.com

High Low Average
Temperature 51.0°F10.6°C 32.1°F0.1°C 41.8°F5.4°C
Dew Point 21.3°F-5.9°C 9.2°F-12.7°C 15.0°F-9.4°C
Winds 15.0 mph 24.1 kmh Calm Calm 6.0 mph WSW9.7 kmh WSW
Wind Gusts 25.3 mph40.7 kmh -- 10.0 mph16.1 kmh
Humidity 51% 21% 35%
Pressure 30.41 in1029.8 mb 30.14 in1020.7 mb -
Precipitation 0.00 in0.0 mm - -
Hour Temp Dew Point Humidity Winds Wind Gusts Pressure Precip Precip Rate Daily Precip Total
12:00 AM 41.6°F5.3°C 17.9°F-7.8°C 38% 10.4 mph W16.7 kmh W 15.0 mph24.1 kmh 30.14 in1020.7 mb - 0.00 in0.0 mm 0.00 in0.0 mm
12:10 AM 41.7°F5.4°C 17.3°F-8.2°C 37% 8.1 mph WSW13.0 kmh WSW 10.4 mph16.7 kmh 30.14 in1020.7 mb - 0.00 in0.0 mm 0.00 in0.0 mm
12:20 AM 41.3°F5.2°C 17.6°F-8.0°C 38% 6.9 mph W11.1 kmh W 9.2 mph14.8 kmh 30.15 in1021.0 mb - 0.00 in0.0 mm 0.00 in0.0 mm
12:30 AM 41.2°F5.1°C 17.4°F-8.1°C 38% 6.9 mph WSW11.1 kmh WSW 8.1 mph13.0 kmh 30.15 in1021.0 mb - 0.00 in0.0 mm 0.00 in0.0 mm
12:40 AM 40.6°F4.8°C 18.7°F-7.4°C 41% 6.9 mph NW11.1 kmh NW 8.1 mph13.0 kmh 30.15 in1021.0 mb - 0.00 in0.0 mm 0.00 in0.0 mm
12:50 AM 40.4°F4.7°C 18.5°F-7.5°C 41% 2.3 mph WSW3.7 kmh WSW 2.3 mph3.7 kmh 30.15 in1021.0 mb - 0.00 in0.0 mm 0.00 in0.0 mm
01:00 AM 39.9°F4.4°C 19.2°F-7.1°C 43% 3.5 mph W5.6 kmh W 5.8 mph9.3 kmh 30.15 in1021.0 mb - 0.00 in0.0 mm 0.00 in0.0 mm
01:10 AM 39.6°F4.2°C 18.9°F-7.3°C 43% 2.3 mph SW3.7 kmh SW 2.3 mph3.7 kmh 30.15 in1021.0 mb - 0.00 in0.0 mm 0.00 in0.0 mm
01:20 AM 39.6°F4.2°C 19.5°F-6.9°C 44% 2.3 mph NNW3.7 kmh NNW 2.3 mph3.7 kmh 30.15 in1021.0 mb - 0.00 in0.0 mm 0.00 in0.0 mm
01:30 AM 39.7°F4.3°C 19.0°F-7.2°C 43% 4.6 mph W7.4 kmh W 5.8 mph9.3 kmh 30.15 in1021.0 mb - 0.00 in0.0 mm 0.00 in0.0 mm
01:40 AM 39.5°F4.2°C 18.8°F-7.3°C 43% 5.8 mph WNW9.3 kmh WNW 3.5 mph5.6 kmh 30.15 in1021.0 mb - 0.00 in0.0 mm 0.00 in0.0 mm
01:50 AM 39.6°F4.2°C 19.5°F-6.9°C 44% 3.5 mph WSW5.6 kmh WSW 2.3 mph3.7 kmh 30.16 in1021.3 mb - 0.00 in0.0 mm 0.00 in0.0 mm
02:00 AM 39.3°F4.1°C 19.7°F-6.8°C 45% 4.6 mph W7.4 kmh W 5.8 mph9.3 kmh 30.17 in1021.7 mb - 0.00 in0.0 mm 0.00 in0.0 mm
02:10 AM 39.3°F4.1°C 19.7°F-6.8°C 45% 3.5 mph WSW5.6 kmh WSW 3.5 mph5.6 kmh 30.17 in1021.7 mb - 0.00 in0.0 mm 0.00 in0.0 mm
02:20 AM 39.2°F4.0°C 19.6°F-6.9°C 45% 5.8 mph WSW9.3 kmh WSW 8.1 mph13.0 kmh 30.17 in1021.7 mb - 0.00 in0.0 mm 0.00 in0.0 mm
02:30 AM 38.9°F3.8°C 20.4°F-6.4°C 47% 4.6 mph SW7.4 kmh SW 5.8 mph9.3 kmh 30.17 in1021.7 mb - 0.00 in0.0 mm 0.00 in0.0 mm
02:40 AM 38.5°F3.6°C 20.5°F-6.4°C 48% 4.6 mph W7.4 kmh W 8.1 mph13.0 kmh 30.17 in1021.7 mb - 0.00 in0.0 mm 0.00 in0.0 mm
02:50 AM 38.5°F3.6°C 20.5°F-6.4°C 48% 3.5 mph W5.6 kmh W 2.3 mph3.7 kmh 30.17 in1021.7 mb - 0.00 in0.0 mm 0.00 in0.0 mm
03:00 AM 38.2°F3.4°C 20.7°F-6.3°C 49% 3.5 mph SW5.6 kmh SW 8.1 mph13.0 kmh 30.17 in1021.7 mb - 0.00 in0.0 mm 0.00 in0.0 mm
03:10 AM 38.2°F3.4°C 20.2°F-6.6°C 48% 4.6 mph WSW7.4 kmh WSW 5.8 mph9.3 kmh 30.17 in1021.7 mb - 0.00 in0.0 mm 0.00 in0.0 mm
03:20 AM 38.3°F3.5°C 20.8°F-6.2°C 49% 3.5 mph SW5.6 kmh SW 2.3 mph3.7 kmh 30.17 in1021.7 mb - 0.00 in0.0 mm 0.00 in0.0 mm
03:30 AM 37.8°F3.2°C 20.8°F-6.2°C 50% 6.9 mph WSW11.1 kmh WSW 15.0 mph24.1 kmh 30.18 in1022.0 mb - 0.00 in0.0 mm 0.00 in0.0 mm
03:40 AM 37.9°F3.3°C 20.9°F-6.2°C 50% 3.5 mph SW5.6 kmh SW 2.3 mph3.7 kmh 30.18 in1022.0 mb - 0.00 in0.0 mm 0.00 in0.0 mm
03:50 AM 37.8°F3.2°C 21.3°F-5.9°C 51% 2.3 mph W3.7 kmh W 5.8 mph9.3 kmh 30.18 in1022.0 mb - 0.00 in0.0 mm 0.00 in0.0 mm
04:00 AM 37.5°F3.1°C 21.0°F-6.1°C 51% 6.9 mph WSW11.1 kmh WSW 11.5 mph18.5 kmh 30.18 in1022.0 mb - 0.00 in0.0 mm 0.00 in0.0 mm
04:10 AM 37.7°F3.2°C 21.2°F-6.0°C 51% 4.6 mph WSW7.4 kmh WSW 8.1 mph13.0 kmh 30.19 in1022.4 mb - 0.00 in0.0 mm 0.00 in0.0 mm
04:20 AM 37.4°F3.0°C 20.9°F-6.2°C 51% 4.6 mph WSW7.4 kmh WSW 8.1 mph13.0 kmh 30.19 in1022.4 mb - 0.00 in0.0 mm 0.00 in0.0 mm
04:30 AM 37.3°F2.9°C 20.3°F-6.5°C 50% 6.9 mph WSW11.1 kmh WSW 9.2 mph14.8 kmh 30.19 in1022.4 mb - 0.00 in0.0 mm 0.00 in0.0 mm
04:40 AM 37.2°F2.9°C 20.2°F-6.6°C 50% 4.6 mph WSW7.4 kmh WSW 9.2 mph14.8 kmh 30.20 in1022.7 mb - 0.00 in0.0 mm 0.00 in0.0 mm
04:50 AM 37.1°F2.8°C 20.2°F-6.6°C 50% 10.4 mph WSW16.7 kmh WSW 15.0 mph24.1 kmh 30.21 in1023.0 mb - 0.00 in0.0 mm 0.00 in0.0 mm
05:00 AM 37.2°F2.9°C 19.3°F-7.1°C 48% 8.1 mph WNW13.0 kmh WNW 9.2 mph14.8 kmh 30.21 in1023.0 mb - 0.00 in0.0 mm 0.00 in0.0 mm
05:10 AM 36.9°F2.7°C 19.0°F-7.2°C 48% 8.1 mph W13.0 kmh W 9.2 mph14.8 kmh 30.21 in1023.0 mb - 0.00 in0.0 mm 0.00 in0.0 mm
05:20 AM 36.5°F2.5°C 19.1°F-7.2°C 49% 3.5 mph NW5.6 kmh NW 3.5 mph5.6 kmh 30.22 in1023.4 mb - 0.00 in0.0 mm 0.00 in0.0 mm
05:30 AM 36.3°F2.4°C 18.9°F-7.3°C 49% 3.5 mph W5.6 kmh W 5.8 mph9.3 kmh 30.23 in1023.7 mb - 0.00 in0.0 mm 0.00 in0.0 mm
05:40 AM 36.1°F2.3°C 19.2°F-7.1°C 50% 2.3 mph W3.7 kmh W 2.3 mph3.7 kmh 30.23 in1023.7 mb - 0.00 in0.0 mm 0.00 in0.0 mm
05:50 AM 35.9°F2.2°C 19.0°F-7.2°C 50% 4.6 mph WSW7.4 kmh WSW 8.1 mph13.0 kmh 30.23 in1023.7 mb - 0.00 in0.0 mm 0.00 in0.0 mm
06:00 AM 36.0°F2.2°C 17.7°F-7.9°C 47% 5.8 mph WSW9.3 kmh WSW 9.2 mph14.8 kmh 30.24 in1024.0 mb - 0.00 in0.0 mm 0.00 in0.0 mm
06:10 AM 36.3°F2.4°C 17.5°F-8.1°C 46% 6.9 mph WSW11.1 kmh WSW 11.5 mph18.5 kmh 30.25 in1024.4 mb - 0.00 in0.0 mm 0.00 in0.0 mm
06:20 AM 36.6°F2.6°C 17.2°F-8.2°C 45% 6.9 mph WSW11.1 kmh WSW 9.2 mph14.8 kmh 30.25 in1024.4 mb - 0.00 in0.0 mm 0.00 in0.0 mm
06:30 AM 36.9°F2.7°C 17.0°F-8.3°C 44% 3.5 mph WSW5.6 kmh WSW 6.9 mph11.1 kmh 30.25 in1024.4 mb - 0.00 in0.0 mm 0.00 in0.0 mm
06:40 AM 37.2°F2.9°C 17.3°F-8.2°C 44% 6.9 mph WSW11.1 kmh WSW 11.5 mph18.5 kmh 30.25 in1024.4 mb - 0.00 in0.0 mm 0.00 in0.0 mm
06:50 AM 37.8°F3.2°C 16.2°F-8.8°C 41% 6.9 mph WSW11.1 kmh WSW 8.1 mph13.0 kmh 30.26 in1024.7 mb - 0.00 in0.0 mm 0.00 in0.0 mm
07:00 AM 38.3°F3.5°C 15.5°F-9.2°C 39% 5.8 mph WSW9.3 kmh WSW 9.2 mph14.8 kmh 30.26 in1024.7 mb - 0.00 in0.0 mm 0.00 in0.0 mm
07:10 AM 38.7°F3.7°C 14.0°F-10.0°C 36% 6.9 mph WSW11.1 kmh WSW 15.0 mph24.1 kmh 30.27 in1025.1 mb - 0.00 in0.0 mm 0.00 in0.0 mm
07:20 AM 39.0°F3.9°C 13.0°F-10.6°C 34% 6.9 mph WSW11.1 kmh WSW 16.1 mph25.9 kmh 30.27 in1025.1 mb - 0.00 in0.0 mm 0.00 in0.0 mm
07:30 AM 39.6°F4.2°C 13.5°F-10.3°C 34% 4.6 mph WSW7.4 kmh WSW 6.9 mph11.1 kmh 30.27 in1025.1 mb - 0.00 in0.0 mm 0.00 in0.0 mm
07:40 AM 40.1°F4.5°C 13.3°F-10.4°C 33% 10.4 mph W16.7 kmh W 21.9 mph35.2 kmh 30.27 in1025.1 mb - 0.00 in0.0 mm 0.00 in0.0 mm
07:50 AM 40.8°F4.9°C 13.9°F-10.1°C 33% 8.1 mph WSW13.0 kmh WSW 15.0 mph24.1 kmh 30.27 in1025.1 mb - 0.00 in0.0 mm 0.00 in0.0 mm
08:00 AM 41.0°F5.0°C 13.3°F-10.4°C 32% 8.1 mph WNW13.0 kmh WNW 11.5 mph18.5 kmh 30.27 in1025.1 mb - 0.00 in0.0 mm 0.00 in0.0 mm
08:10 AM 41.4°F5.2°C 13.0°F-10.6°C 31% 10.4 mph WSW16.7 kmh WSW 18.4 mph29.6 kmh 30.27 in1025.1 mb - 0.00 in0.0 mm 0.00 in0.0 mm
08:20 AM 41.8°F5.4°C 15.4°F-9.2°C 34% 5.8 mph WSW9.3 kmh WSW 13.8 mph22.2 kmh 30.28 in1025.4 mb - 0.00 in0.0 mm 0.00 in0.0 mm
08:30 AM 42.5°F5.8°C 14.7°F-9.6°C 32% 12.7 mph W20.4 kmh W 15.0 mph24.1 kmh 30.28 in1025.4 mb - 0.00 in0.0 mm 0.00 in0.0 mm
08:40 AM 42.6°F5.9°C 14.1°F-9.9°C 31% 11.5 mph WSW18.5 kmh WSW 23.0 mph37.0 kmh 30.28 in1025.4 mb - 0.00 in0.0 mm 0.00 in0.0 mm
08:50 AM 42.8°F6.0°C 14.9°F-9.5°C 32% 9.2 mph W14.8 kmh W 16.1 mph25.9 kmh 30.29 in1025.7 mb - 0.00 in0.0 mm 0.00 in0.0 mm
09:00 AM 43.1°F6.2°C 15.2°F-9.3°C 32% 6.9 mph W11.1 kmh W 11.5 mph18.5 kmh 30.28 in1025.4 mb - 0.00 in0.0 mm 0.00 in0.0 mm
09:10 AM 44.2°F6.8°C 14.7°F-9.6°C 30% 9.2 mph WSW14.8 kmh WSW 15.0 mph24.1 kmh 30.28 in1025.4 mb - 0.00 in0.0 mm 0.00 in0.0 mm
09:20 AM 44.3°F6.8°C 14.0°F-10.0°C 29% 9.2 mph W14.8 kmh W 24.2 mph38.9 kmh 30.28 in1025.4 mb - 0.00 in0.0 mm 0.00 in0.0 mm
09:30 AM 44.3°F6.8°C 14.7°F-9.6°C 30% 9.2 mph W14.8 kmh W 11.5 mph18.5 kmh 30.29 in1025.7 mb - 0.00 in0.0 mm 0.00 in0.0 mm
09:40 AM 44.4°F6.9°C 14.1°F-9.9°C 29% 11.5 mph WSW18.5 kmh WSW 17.3 mph27.8 kmh 30.29 in1025.7 mb - 0.00 in0.0 mm 0.00 in0.0 mm
09:50 AM 45.3°F7.4°C 14.9°F-9.5°C 29% 10.4 mph WSW16.7 kmh WSW 24.2 mph38.9 kmh 30.29 in1025.7 mb - 0.00 in0.0 mm 0.00 in0.0 mm
10:00 AM 46.0°F7.8°C 17.0°F-8.3°C 31% 8.1 mph WSW13.0 kmh WSW 18.4 mph29.6 kmh 30.29 in1025.7 mb - 0.00 in0.0 mm 0.00 in0.0 mm
10:10 AM 46.6°F8.1°C 15.2°F-9.3°C 28% 6.9 mph NW11.1 kmh NW 15.0 mph24.1 kmh 30.29 in1025.7 mb - 0.00 in0.0 mm 0.00 in0.0 mm
10:20 AM 46.4°F8.0°C 15.1°F-9.4°C 28% 9.2 mph WNW14.8 kmh WNW 16.1 mph25.9 kmh 30.30 in1026.1 mb - 0.00 in0.0 mm 0.00 in0.0 mm
10:30 AM 47.3°F8.5°C 14.1°F-9.9°C 26% 8.1 mph WSW13.0 kmh WSW 11.5 mph18.5 kmh 30.30 in1026.1 mb - 0.00 in0.0 mm 0.00 in0.0 mm
10:40 AM 47.5°F8.6°C 13.4°F-10.3°C 25% 10.4 mph W16.7 kmh W 11.5 mph18.5 kmh 30.30 in1026.1 mb - 0.00 in0.0 mm 0.00 in0.0 mm
10:50 AM 47.5°F8.6°C 13.4°F-10.3°C 25% 8.1 mph NW13.0 kmh NW 15.0 mph24.1 kmh 30.30 in1026.1 mb - 0.00 in0.0 mm 0.00 in0.0 mm
11:00 AM 47.9°F8.8°C 14.6°F-9.7°C 26% 9.2 mph W14.8 kmh W 15.0 mph24.1 kmh 30.30 in1026.1 mb - 0.00 in0.0 mm 0.00 in0.0 mm
11:10 AM 48.3°F9.1°C 15.0°F-9.4°C 26% 9.2 mph W14.8 kmh W 11.5 mph18.5 kmh 30.31 in1026.4 mb - 0.00 in0.0 mm 0.00 in0.0 mm
11:20 AM 48.3°F9.1°C 15.8°F-9.0°C 27% 8.1 mph WSW13.0 kmh WSW 13.8 mph22.2 kmh 30.30 in1026.1 mb - 0.00 in0.0 mm 0.00 in0.0 mm
11:30 AM 48.4°F9.1°C 14.2°F-9.9°C 25% 8.1 mph WSW13.0 kmh WSW 16.1 mph25.9 kmh 30.31 in1026.4 mb - 0.00 in0.0 mm 0.00 in0.0 mm
11:40 AM 48.4°F9.1°C 15.0°F-9.4°C 26% 12.7 mph WSW20.4 kmh WSW 25.3 mph40.7 kmh 30.31 in1026.4 mb - 0.00 in0.0 mm 0.00 in0.0 mm
12:10 PM 49.6°F9.8°C 16.1°F-8.8°C 26% 8.1 mph WSW13.0 kmh WSW 17.3 mph27.8 kmh 30.30 in1026.1 mb - 0.00 in0.0 mm 0.00 in0.0 mm
12:20 PM 49.7°F9.8°C 15.2°F-9.3°C 25% 12.7 mph WSW20.4 kmh WSW 17.3 mph27.8 kmh 30.29 in1025.7 mb - 0.00 in0.0 mm 0.00 in0.0 mm
12:30 PM 49.4°F9.7°C 15.0°F-9.4°C 25% 13.8 mph WSW22.2 kmh WSW 15.0 mph24.1 kmh 30.30 in1026.1 mb - 0.00 in0.0 mm 0.00 in0.0 mm
12:40 PM 49.2°F9.6°C 14.9°F-9.5°C 25% 5.8 mph NNW9.3 kmh NNW 8.1 mph13.0 kmh 30.30 in1026.1 mb - 0.00 in0.0 mm 0.00 in0.0 mm
01:50 PM 49.9°F9.9°C 16.3°F-8.7°C 26% 8.1 mph SW13.0 kmh SW 16.1 mph25.9 kmh 30.29 in1025.7 mb - 0.00 in0.0 mm 0.00 in0.0 mm
02:00 PM 51.0°F10.6°C 17.2°F-8.2°C 26% 5.8 mph WSW9.3 kmh WSW 16.1 mph25.9 kmh 30.29 in1025.7 mb - 0.00 in0.0 mm 0.00 in0.0 mm
02:10 PM 50.9°F10.5°C 13.3°F-10.4°C 22% 15.0 mph WSW24.1 kmh WSW 25.3 mph40.7 kmh 30.28 in1025.4 mb - 0.00 in0.0 mm 0.00 in0.0 mm
02:20 PM 50.8°F10.4°C 14.3°F-9.8°C 23% 8.1 mph W13.0 kmh W 5.8 mph9.3 kmh 30.29 in1025.7 mb - 0.00 in0.0 mm 0.00 in0.0 mm
02:30 PM 50.8°F10.4°C 14.3°F-9.8°C 23% 10.4 mph WNW16.7 kmh WNW 8.1 mph13.0 kmh 30.29 in1025.7 mb - 0.00 in0.0 mm 0.00 in0.0 mm
02:40 PM 50.8°F10.4°C 15.2°F-9.3°C 24% 11.5 mph WSW18.5 kmh WSW 19.6 mph31.5 kmh 30.29 in1025.7 mb - 0.00 in0.0 mm 0.00 in0.0 mm
03:00 PM 50.4°F10.2°C 13.9°F-10.1°C 23% 6.9 mph WSW11.1 kmh WSW 13.8 mph22.2 kmh 30.29 in1025.7 mb - 0.00 in0.0 mm 0.00 in0.0 mm
03:20 PM 50.5°F10.3°C 13.0°F-10.6°C 22% 8.1 mph WSW13.0 kmh WSW 16.1 mph25.9 kmh 30.29 in1025.7 mb - 0.00 in0.0 mm 0.00 in0.0 mm
03:30 PM 50.9°F10.5°C 13.4°F-10.3°C 22% 9.2 mph WSW14.8 kmh WSW 13.8 mph22.2 kmh 30.29 in1025.7 mb - 0.00 in0.0 mm 0.00 in0.0 mm
03:50 PM 49.7°F9.8°C 12.3°F-10.9°C 22% 6.9 mph WSW11.1 kmh WSW 17.3 mph27.8 kmh 30.29 in1025.7 mb - 0.00 in0.0 mm 0.00 in0.0 mm
04:00 PM 49.9°F9.9°C 12.5°F-10.8°C 22% 8.1 mph NW13.0 kmh NW 9.2 mph14.8 kmh 30.30 in1026.1 mb - 0.00 in0.0 mm 0.00 in0.0 mm
04:10 PM 49.7°F9.8°C 12.4°F-10.9°C 22% 9.2 mph WSW14.8 kmh WSW 15.0 mph24.1 kmh 30.30 in1026.1 mb - 0.00 in0.0 mm 0.00 in0.0 mm
04:20 PM 49.5°F9.7°C 12.2°F-11.0°C 22% 5.8 mph W9.3 kmh W 11.5 mph18.5 kmh 30.31 in1026.4 mb - 0.00 in0.0 mm 0.00 in0.0 mm
04:30 PM 49.2°F9.6°C 10.9°F-11.7°C 21% 9.2 mph WSW14.8 kmh WSW 16.1 mph25.9 kmh 30.31 in1026.4 mb - 0.00 in0.0 mm 0.00 in0.0 mm
04:40 PM 48.9°F9.4°C 12.7°F-10.7°C 23% 11.5 mph NW18.5 kmh NW 16.1 mph25.9 kmh 30.31 in1026.4 mb - 0.00 in0.0 mm 0.00 in0.0 mm
04:50 PM 48.4°F9.1°C 11.2°F-11.6°C 22% 11.5 mph WSW18.5 kmh WSW 19.6 mph31.5 kmh 30.31 in1026.4 mb - 0.00 in0.0 mm 0.00 in0.0 mm
05:00 PM 47.7°F8.7°C 11.7°F-11.3°C 23% 9.2 mph NW14.8 kmh NW 9.2 mph14.8 kmh 30.31 in1026.4 mb - 0.00 in0.0 mm 0.00 in0.0 mm
05:10 PM 47.3°F8.5°C 12.3°F-10.9°C 24% 8.1 mph W13.0 kmh W 11.5 mph18.5 kmh 30.31 in1026.4 mb - 0.00 in0.0 mm 0.00 in0.0 mm
05:20 PM 46.9°F8.3°C 11.9°F-11.2°C 24% 8.1 mph WSW13.0 kmh WSW 13.8 mph22.2 kmh 30.31 in1026.4 mb - 0.00 in0.0 mm 0.00 in0.0 mm
05:30 PM 46.5°F8.1°C 11.6°F-11.3°C 24% 5.8 mph WSW9.3 kmh WSW 5.8 mph9.3 kmh 30.32 in1026.8 mb - 0.00 in0.0 mm 0.00 in0.0 mm
05:40 PM 46.1°F7.8°C 11.2°F-11.6°C 24% 4.6 mph W7.4 kmh W 5.8 mph9.3 kmh 30.32 in1026.8 mb - 0.00 in0.0 mm 0.00 in0.0 mm
05:50 PM 45.4°F7.4°C 11.5°F-11.4°C 25% 5.8 mph NNE9.3 kmh NNE 5.8 mph9.3 kmh 30.32 in1026.8 mb - 0.00 in0.0 mm 0.00 in0.0 mm
06:00 PM 44.8°F7.1°C 10.1°F-12.2°C 24% 8.1 mph W13.0 kmh W 11.5 mph18.5 kmh 30.32 in1026.8 mb - 0.00 in0.0 mm 0.00 in0.0 mm
06:10 PM 44.5°F6.9°C 9.9°F-12.3°C 24% 4.6 mph WSW7.4 kmh WSW 10.4 mph16.7 kmh 30.33 in1027.1 mb - 0.00 in0.0 mm 0.00 in0.0 mm
06:20 PM 43.9°F6.6°C 10.3°F-12.1°C 25% 4.6 mph W7.4 kmh W 5.8 mph9.3 kmh 30.33 in1027.1 mb - 0.00 in0.0 mm 0.00 in0.0 mm
06:30 PM 43.4°F6.3°C 10.7°F-11.8°C 26% 3.5 mph W5.6 kmh W 8.1 mph13.0 kmh 30.33 in1027.1 mb - 0.00 in0.0 mm 0.00 in0.0 mm
06:40 PM 42.8°F6.0°C 11.1°F-11.6°C 27% 6.9 mph WSW11.1 kmh WSW 16.1 mph25.9 kmh 30.34 in1027.4 mb - 0.00 in0.0 mm 0.00 in0.0 mm
06:50 PM 42.6°F5.9°C 10.1°F-12.2°C 26% 3.5 mph WSW5.6 kmh WSW 9.2 mph14.8 kmh 30.34 in1027.4 mb - 0.00 in0.0 mm 0.00 in0.0 mm
07:00 PM 42.4°F5.8°C 9.9°F-12.3°C 26% 6.9 mph WSW11.1 kmh WSW 8.1 mph13.0 kmh 30.34 in1027.4 mb - 0.00 in0.0 mm 0.00 in0.0 mm
07:10 PM 41.9°F5.5°C 9.5°F-12.5°C 26% 2.3 mph WSW3.7 kmh WSW 6.9 mph11.1 kmh 30.35 in1027.8 mb - 0.00 in0.0 mm 0.00 in0.0 mm
07:20 PM 41.6°F5.3°C 9.2°F-12.7°C 26% 4.6 mph W7.4 kmh W 5.8 mph9.3 kmh 30.35 in1027.8 mb - 0.00 in0.0 mm 0.00 in0.0 mm
07:30 PM 41.6°F5.3°C 10.0°F-12.2°C 27% 5.8 mph WNW9.3 kmh WNW 9.2 mph14.8 kmh 30.35 in1027.8 mb - 0.00 in0.0 mm 0.00 in0.0 mm
07:40 PM 41.1°F5.1°C 9.6°F-12.4°C 27% 8.1 mph NW13.0 kmh NW 8.1 mph13.0 kmh 30.36 in1028.1 mb - 0.00 in0.0 mm 0.00 in0.0 mm
07:50 PM 40.9°F4.9°C 11.0°F-11.7°C 29% 2.3 mph WSW3.7 kmh WSW 5.8 mph9.3 kmh 30.36 in1028.1 mb - 0.00 in0.0 mm 0.00 in0.0 mm
08:00 PM 40.0°F4.4°C 10.3°F-12.1°C 29% 2.3 mph NW3.7 kmh NW 2.3 mph3.7 kmh 30.37 in1028.4 mb - 0.00 in0.0 mm 0.00 in0.0 mm
08:10 PM 39.4°F4.1°C 9.7°F-12.4°C 29% 3.5 mph WSW5.6 kmh WSW 2.3 mph3.7 kmh 30.37 in1028.4 mb - 0.00 in0.0 mm 0.00 in0.0 mm
08:20 PM 39.1°F3.9°C 10.2°F-12.1°C 30% 3.5 mph WNW5.6 kmh WNW 2.3 mph3.7 kmh 30.37 in1028.4 mb - 0.00 in0.0 mm 0.00 in0.0 mm
08:30 PM 39.6°F4.2°C 10.7°F-11.8°C 30% 4.6 mph WNW7.4 kmh WNW 9.2 mph14.8 kmh 30.38 in1028.8 mb - 0.00 in0.0 mm 0.00 in0.0 mm
08:40 PM 39.7°F4.3°C 10.0°F-12.2°C 29% 3.5 mph WSW5.6 kmh WSW 3.5 mph5.6 kmh 30.39 in1029.1 mb - 0.00 in0.0 mm 0.00 in0.0 mm
08:50 PM 39.2°F4.0°C 11.8°F-11.2°C 32% 1.2 mph W1.9 kmh W 2.3 mph3.7 kmh 30.39 in1029.1 mb - 0.00 in0.0 mm 0.00 in0.0 mm
09:00 PM 38.8°F3.8°C 11.4°F-11.4°C 32% 3.5 mph WSW5.6 kmh WSW 5.8 mph9.3 kmh 30.39 in1029.1 mb - 0.00 in0.0 mm 0.00 in0.0 mm
09:10 PM 38.8°F3.8°C 12.1°F-11.1°C 33% 2.3 mph WNW3.7 kmh WNW 5.8 mph9.3 kmh 30.39 in1029.1 mb - 0.00 in0.0 mm 0.00 in0.0 mm
09:20 PM 38.2°F3.4°C 12.2°F-11.0°C 34% 3.5 mph NW5.6 kmh NW 2.3 mph3.7 kmh 30.39 in1029.1 mb - 0.00 in0.0 mm 0.00 in0.0 mm
09:30 PM 37.8°F3.2°C 11.9°F-11.2°C 34% 1.2 mph NW1.9 kmh NW 5.8 mph9.3 kmh 30.40 in1029.5 mb - 0.00 in0.0 mm 0.00 in0.0 mm
09:40 PM 37.5°F3.1°C 12.3°F-10.9°C 35% 2.3 mph WSW3.7 kmh WSW 2.3 mph3.7 kmh 30.40 in1029.5 mb - 0.00 in0.0 mm 0.00 in0.0 mm
09:50 PM 36.7°F2.6°C 12.8°F-10.7°C 37% 1.2 mph WNW1.9 kmh WNW 2.3 mph3.7 kmh 30.41 in1029.8 mb - 0.00 in0.0 mm 0.00 in0.0 mm
10:00 PM 36.3°F2.4°C 11.9°F-11.2°C 36% 3.5 mph WSW5.6 kmh WSW 2.3 mph3.7 kmh 30.41 in1029.8 mb - 0.00 in0.0 mm 0.00 in0.0 mm
10:10 PM 35.8°F2.1°C 12.6°F-10.8°C 38% 1.2 mph NW1.9 kmh NW 2.3 mph3.7 kmh 30.40 in1029.5 mb - 0.00 in0.0 mm 0.00 in0.0 mm
10:20 PM 35.2°F1.8°C 13.8°F-10.1°C 41% 1.2 mph NW1.9 kmh NW 1.2 mph1.9 kmh 30.40 in1029.5 mb - 0.00 in0.0 mm 0.00 in0.0 mm
10:30 PM 35.1°F1.7°C 12.6°F-10.8°C 39% 1.2 mph WNW1.9 kmh WNW 2.3 mph3.7 kmh 30.40 in1029.5 mb - 0.00 in0.0 mm 0.00 in0.0 mm
10:40 PM 35.1°F1.7°C 13.7°F-10.2°C 41% 2.3 mph WSW3.7 kmh WSW 2.3 mph3.7 kmh 30.40 in1029.5 mb - 0.00 in0.0 mm 0.00 in0.0 mm
10:50 PM 33.8°F1.0°C 13.6°F-10.2°C 43% Calm Calm -- 30.40 in1029.5 mb - 0.00 in0.0 mm 0.00 in0.0 mm
11:00 PM 33.7°F0.9°C 13.5°F-10.3°C 43% Calm Calm 2.3 mph3.7 kmh 30.40 in1029.5 mb - 0.00 in0.0 mm 0.00 in0.0 mm
11:10 PM 34.3°F1.3°C 13.0°F-10.6°C 41% Calm Calm -- 30.41 in1029.8 mb - 0.00 in0.0 mm 0.00 in0.0 mm
11:20 PM 34.1°F1.2°C 13.3°F-10.4°C 42% Calm Calm -- 30.41 in1029.8 mb - 0.00 in0.0 mm 0.00 in0.0 mm
11:30 PM 33.7°F0.9°C 13.0°F-10.6°C 42% 1.2 mph SW1.9 kmh SW 2.3 mph3.7 kmh 30.41 in1029.8 mb - 0.00 in0.0 mm 0.00 in0.0 mm
11:40 PM 33.5°F0.8°C 14.4°F-9.8°C 45% Calm Calm -- 30.41 in1029.8 mb - 0.00 in0.0 mm 0.00 in0.0 mm
11:50 PM 32.1°F0.1°C 13.1°F-10.5°C 45% Calm Calm -- 30.41 in1029.8 mb - 0.00 in0.0 mm 0.00 in0.0 mm